Weather at Rimouski Airport

Public forecast

Using degrees Celsius for public forecast. Weather courtesy of forecast.io.

Closest aviation weather report (METAR) to Rimouski Airport

Closest report is Mont Joli Airport, 13.9 nm (25.7 km) NE. Retrieved 2021/01/19 09:00 UTC (47 minutes ago):

CYYY 190900Z 29017G24KT 30SM OVC022 M11/M17 A2971 RMK SC8 SLP066

Closest aviation forecast (TAF) to Rimouski Airport

Closest forecast is Mont Joli Airport, 13.9 nm (25.7 km) NE. Retrieved 2021/01/19 08:00 UTC (2 hours ago):

TAF CYYY 190742Z 1908/1920 30015G25KT P6SM BKN025 TEMPO 1908/1915 P6SM -SHSN OVC020 FM191500 30015G25KT P6SM BKN030 TEMPO 1915/1920 SCT030 RMK NXT FCST BY 191400Z